createdAt,value
2023-04-27T00:00:17.946Z,101038.22
2023-04-27T00:02:47.711Z,101048.75
2023-04-27T00:05:20.861Z,101053.16
2023-04-27T00:07:50.787Z,101052.38
2023-04-27T00:10:20.466Z,101050.66
2023-04-27T00:12:50.156Z,101053.31
2023-04-27T00:15:19.843Z,101050.81
2023-04-27T00:17:49.584Z,101049.16
2023-04-27T00:20:22.011Z,101048.31
2023-04-27T00:22:51.913Z,101057.97
2023-04-27T00:25:21.602Z,101054.53
2023-04-27T00:27:51.335Z,101052.00
2023-04-27T00:30:21.139Z,101057.28
2023-04-27T00:32:50.962Z,101054.69
2023-04-27T00:35:23.430Z,101055.63
2023-04-27T00:37:53.117Z,101046.09
2023-04-27T00:40:23.649Z,101060.06
2023-04-27T00:42:53.441Z,101062.75
2023-04-27T00:45:23.224Z,101062.78
2023-04-27T00:47:53.017Z,101067.19
2023-04-27T00:50:31.290Z,101066.31
2023-04-27T00:53:01.609Z,101068.09
2023-04-27T00:55:31.400Z,101075.06
2023-04-27T00:58:01.277Z,101061.19
2023-04-27T01:00:31.178Z,101072.56
2023-04-27T01:03:01.313Z,101070.88
2023-04-27T01:05:34.124Z,101084.81
2023-04-27T01:08:03.911Z,101080.47
2023-04-27T01:10:33.597Z,101080.47
2023-04-27T01:13:03.447Z,101070.97
2023-04-27T01:15:34.221Z,101078.81
2023-04-27T01:18:04.735Z,101079.75
2023-04-27T01:20:38.942Z,101076.28
2023-04-27T01:23:08.908Z,101075.41
2023-04-27T01:25:41.345Z,101072.88
2023-04-27T01:28:11.173Z,101081.56
2023-04-27T01:30:40.804Z,101076.38
2023-04-27T01:33:11.000Z,101078.16
2023-04-27T01:35:40.730Z,101081.63
2023-04-27T01:38:10.406Z,101084.28
2023-04-27T01:40:42.990Z,101099.94
2023-04-27T01:43:12.824Z,101081.69
2023-04-27T01:45:42.524Z,101085.19
2023-04-27T01:48:12.285Z,101098.25
2023-04-27T01:50:41.933Z,101094.78
2023-04-27T01:53:11.624Z,101092.19
2023-04-27T01:55:43.936Z,101088.75
2023-04-27T01:58:13.965Z,101093.97
2023-04-27T02:00:44.667Z,101093.13
2023-04-27T02:03:14.480Z,101091.38
2023-04-27T02:05:44.588Z,101107.91
2023-04-27T02:08:15.730Z,101116.59
2023-04-27T02:10:48.172Z,101119.19
2023-04-27T02:13:19.790Z,101120.97
2023-04-27T02:15:49.738Z,101119.25
2023-04-27T02:18:20.299Z,101117.50
2023-04-27T02:20:50.158Z,101116.66
2023-04-27T02:23:19.929Z,101110.56
2023-04-27T02:25:52.270Z,101107.09
2023-04-27T02:28:22.186Z,101103.66
2023-04-27T02:30:52.442Z,101108.00
2023-04-27T02:33:22.223Z,101101.94
2023-04-27T02:35:51.849Z,101091.50
2023-04-27T02:38:21.672Z,101094.13
2023-04-27T02:40:58.653Z,101100.22
2023-04-27T02:43:29.412Z,101102.84
2023-04-27T02:45:59.509Z,101103.69
2023-04-27T02:48:31.290Z,101093.31
2023-04-27T02:51:01.191Z,101103.72
2023-04-27T02:53:30.887Z,101102.84
2023-04-27T02:56:03.526Z,101097.66
2023-04-27T02:58:33.626Z,101103.72
2023-04-27T03:01:03.277Z,101105.44
2023-04-27T03:03:33.073Z,101105.47
2023-04-27T03:06:03.798Z,101104.59
2023-04-27T03:08:33.467Z,101105.47
2023-04-27T03:11:05.956Z,101098.53
2023-04-27T03:13:41.969Z,101095.03
2023-04-27T03:16:13.058Z,101089.00
2023-04-27T03:18:43.049Z,101082.91
2023-04-27T03:21:13.307Z,101086.41
2023-04-27T03:23:43.721Z,101080.34
2023-04-27T03:26:16.935Z,101091.59
2023-04-27T03:28:46.676Z,101088.97
2023-04-27T03:31:17.605Z,101082.06
2023-04-27T03:33:47.357Z,101084.66
2023-04-27T03:36:18.357Z,101085.53
2023-04-27T03:38:48.022Z,101087.25
2023-04-27T03:41:20.584Z,101090.72
2023-04-27T03:43:52.936Z,101093.31
2023-04-27T03:46:22.722Z,101094.19
2023-04-27T03:48:52.784Z,101095.06
2023-04-27T03:51:22.710Z,101100.25
2023-04-27T03:53:52.422Z,101099.41
2023-04-27T03:56:24.714Z,101102.84
2023-04-27T03:58:54.420Z,101108.91
2023-04-27T04:01:30.951Z,101103.72
2023-04-27T04:04:00.943Z,101112.38
2023-04-27T04:06:31.259Z,101110.66
2023-04-27T04:09:01.207Z,101122.75
2023-04-27T04:11:34.019Z,101121.91
2023-04-27T04:14:07.487Z,101119.28
2023-04-27T04:16:37.236Z,101115.81
2023-04-27T04:19:07.116Z,101122.75
2023-04-27T04:21:36.902Z,101125.38
2023-04-27T04:24:07.582Z,101132.28
2023-04-27T04:26:40.270Z,101132.28
2023-04-27T04:29:11.217Z,101140.94
2023-04-27T04:31:41.612Z,101136.63
2023-04-27T04:34:13.056Z,101133.16
2023-04-27T04:36:43.558Z,101135.75
2023-04-27T04:39:15.938Z,101139.19
2023-04-27T04:41:49.523Z,101132.25
2023-04-27T04:44:20.929Z,101133.13
2023-04-27T04:46:51.364Z,101130.53
2023-04-27T04:49:21.168Z,101133.13
2023-04-27T04:51:53.086Z,101136.59
2023-04-27T04:54:23.063Z,101137.44
2023-04-27T04:56:55.483Z,101133.97
2023-04-27T04:59:25.257Z,101136.59
2023-04-27T05:01:56.053Z,101138.31
2023-04-27T05:04:26.786Z,101140.06
2023-04-27T05:06:56.658Z,101134.84
2023-04-27T05:09:26.508Z,101133.97
2023-04-27T05:11:58.881Z,101132.25
2023-04-27T05:14:28.628Z,101140.94
2023-04-27T05:16:58.286Z,101147.00
2023-04-27T05:19:27.938Z,101147.00
2023-04-27T05:21:57.668Z,101148.75
2023-04-27T05:24:27.532Z,101151.34
2023-04-27T05:27:02.145Z,101151.34
2023-04-27T05:29:32.238Z,101160.91
2023-04-27T05:32:02.130Z,101159.16
2023-04-27T05:34:31.815Z,101166.09
2023-04-27T05:37:01.472Z,101179.09
2023-04-27T05:39:31.320Z,101180.84
2023-04-27T05:42:03.676Z,101179.97
2023-04-27T05:44:33.430Z,101181.72
2023-04-27T05:47:03.190Z,101186.03
2023-04-27T05:49:32.860Z,101179.13
2023-04-27T05:52:02.469Z,101177.41
2023-04-27T05:54:32.135Z,101183.50
2023-04-27T05:57:04.473Z,101186.09
2023-04-27T05:59:34.288Z,101184.38
2023-04-27T06:02:04.154Z,101193.91
2023-04-27T06:04:34.126Z,101199.13
2023-04-27T06:07:04.227Z,101201.72
2023-04-27T06:09:34.292Z,101194.81
2023-04-27T06:12:06.711Z,101197.41
2023-04-27T06:14:37.972Z,101199.16
2023-04-27T06:17:07.749Z,101202.59
2023-04-27T06:19:37.425Z,101197.41
2023-04-27T06:22:07.232Z,101202.59
2023-04-27T06:24:37.043Z,101191.34
2023-04-27T06:27:09.429Z,101194.81
2023-04-27T06:29:39.220Z,101191.34
2023-04-27T06:32:08.944Z,101192.22
2023-04-27T06:34:38.658Z,101193.06
2023-04-27T06:37:08.290Z,101196.53
2023-04-27T06:39:38.149Z,101198.25
2023-04-27T06:42:10.565Z,101200.88
2023-04-27T06:44:40.729Z,101211.25
2023-04-27T06:47:11.004Z,101199.91
2023-04-27T06:49:40.766Z,101193.78
2023-04-27T06:52:10.466Z,101185.91
2023-04-27T06:54:40.273Z,101190.13
2023-04-27T06:57:12.694Z,101179.63
2023-04-27T06:59:42.521Z,101177.78
2023-04-27T07:02:12.192Z,101163.75
2023-04-27T07:04:43.450Z,101158.44
2023-04-27T07:07:13.400Z,101157.47
2023-04-27T07:09:43.065Z,101153.00
2023-04-27T07:12:15.402Z,101152.00
2023-04-27T07:14:45.131Z,101144.88
2023-04-27T07:17:14.784Z,101146.53
2023-04-27T07:19:44.502Z,101148.88
2023-04-27T07:22:16.155Z,101143.56
2023-04-27T07:24:46.136Z,101137.22
2023-04-27T07:27:18.521Z,101143.16
2023-04-27T07:29:48.321Z,101149.09
2023-04-27T07:32:18.113Z,101139.31
2023-04-27T07:34:53.645Z,101143.47
2023-04-27T07:37:24.230Z,101140.69
2023-04-27T07:39:54.929Z,101143.06
2023-04-27T07:42:27.303Z,101140.19
2023-04-27T07:44:57.325Z,101146.91
2023-04-27T07:47:27.217Z,101138.78
2023-04-27T07:49:56.908Z,101139.34
2023-04-27T07:52:26.608Z,101139.03
2023-04-27T07:54:56.391Z,101131.75
2023-04-27T07:57:28.711Z,101141.91
2023-04-27T07:59:59.931Z,101136.34
2023-04-27T08:02:31.850Z,101134.25
2023-04-27T08:05:03.151Z,101134.91
2023-04-27T08:07:35.330Z,101131.03
2023-04-27T08:10:07.781Z,101132.38
2023-04-27T08:12:40.048Z,101130.31
2023-04-27T08:15:11.152Z,101124.69
2023-04-27T08:17:42.061Z,101134.91
2023-04-27T08:20:14.239Z,101130.16
2023-04-27T08:22:44.322Z,101127.31
2023-04-27T08:25:14.041Z,101123.28
2023-04-27T08:27:46.287Z,101122.09
2023-04-27T08:30:16.864Z,101117.25
2023-04-27T08:32:46.616Z,101115.97
2023-04-27T08:35:16.342Z,101111.13
2023-04-27T08:37:46.573Z,101101.91
2023-04-27T08:40:17.015Z,101099.13
2023-04-27T08:42:57.807Z,101092.25
2023-04-27T08:45:28.814Z,101100.69
2023-04-27T08:47:58.702Z,101098.31
2023-04-27T08:50:28.863Z,101100.91
2023-04-27T08:52:58.509Z,101094.16
2023-04-27T08:55:28.271Z,101092.13
2023-04-27T08:58:01.818Z,101098.84
2023-04-27T09:00:41.774Z,101095.22
2023-04-27T09:03:17.156Z,101092.97
2023-04-27T09:06:00.643Z,101097.78
2023-04-27T09:08:44.535Z,101097.91
2023-04-27T09:11:14.366Z,101085.94
2023-04-27T09:13:47.134Z,101091.81
2023-04-27T09:16:17.269Z,101084.59
2023-04-27T09:18:47.531Z,101077.28
2023-04-27T09:21:25.120Z,101081.19
2023-04-27T09:23:55.167Z,101070.97
2023-04-27T09:26:26.943Z,101077.09
2023-04-27T09:28:59.819Z,101075.81
2023-04-27T09:31:34.393Z,101072.09
2023-04-27T09:34:04.666Z,101074.59
2023-04-27T09:36:35.238Z,101072.44
2023-04-27T09:39:07.104Z,101064.84
2023-04-27T09:41:37.153Z,101060.16
2023-04-27T09:44:10.541Z,101060.34
2023-04-27T09:46:40.264Z,101064.28
2023-04-27T09:49:10.106Z,101062.75
2023-04-27T09:51:39.831Z,101061.56
2023-04-27T09:54:11.228Z,101062.53
2023-04-27T09:56:45.399Z,101061.75
2023-04-27T09:59:34.098Z,101057.13
2023-04-27T10:02:17.038Z,101046.94
2023-04-27T10:05:09.078Z,101056.53
2023-04-27T10:07:38.881Z,101056.28
2023-04-27T10:10:09.635Z,101049.06
2023-04-27T10:12:39.587Z,101048.00
2023-04-27T10:15:19.673Z,101042.28
2023-04-27T10:17:55.208Z,101037.31
2023-04-27T10:20:32.268Z,101042.34
2023-04-27T10:23:03.008Z,101039.66
2023-04-27T10:25:40.524Z,101032.16
2023-04-27T10:28:10.683Z,101024.59
2023-04-27T10:30:49.121Z,101023.16
2023-04-27T10:33:19.781Z,101024.59
2023-04-27T10:35:57.706Z,101023.09
2023-04-27T10:38:31.637Z,101016.69
2023-04-27T10:41:02.857Z,101011.75
2023-04-27T10:43:33.866Z,101014.31
2023-04-27T10:46:16.804Z,101007.47
2023-04-27T10:48:47.462Z,100997.75
2023-04-27T10:51:19.088Z,101006.34
2023-04-27T10:53:48.953Z,101012.75
2023-04-27T10:56:18.690Z,101005.91
2023-04-27T10:58:49.501Z,101000.88
2023-04-27T11:01:29.976Z,100999.88
2023-04-27T11:04:00.206Z,100996.28
2023-04-27T11:06:32.275Z,101000.41
2023-04-27T11:09:02.503Z,101007.34
2023-04-27T11:11:32.378Z,100996.34
2023-04-27T11:14:03.620Z,100999.53
2023-04-27T11:16:36.386Z,101000.91
2023-04-27T11:19:09.112Z,100998.72
2023-04-27T11:21:39.047Z,100991.72
2023-04-27T11:24:10.317Z,100997.53
2023-04-27T11:26:40.789Z,100998.88
2023-04-27T11:29:14.265Z,100997.84
2023-04-27T11:31:49.463Z,101000.06
2023-04-27T11:34:20.034Z,100998.59
2023-04-27T11:37:10.642Z,100984.34
2023-04-27T11:39:44.824Z,100985.53
2023-04-27T11:42:19.336Z,100979.97
2023-04-27T11:44:54.994Z,100980.97
2023-04-27T11:47:28.359Z,100978.88
2023-04-27T11:49:59.734Z,100974.44
2023-04-27T11:52:31.995Z,100965.69
2023-04-27T11:55:03.432Z,100964.84
2023-04-27T11:57:35.055Z,100964.50
2023-04-27T12:00:11.323Z,100965.50
2023-04-27T12:02:47.853Z,100957.75
2023-04-27T12:05:18.220Z,100952.88
2023-04-27T12:07:47.959Z,100954.03
2023-04-27T12:10:17.739Z,100949.88
2023-04-27T12:12:47.670Z,100946.44
2023-04-27T12:15:17.337Z,100943.53
2023-04-27T12:17:49.671Z,100946.00
2023-04-27T12:20:19.688Z,100940.97
2023-04-27T12:22:49.337Z,100936.84
2023-04-27T12:25:19.866Z,100931.22
2023-04-27T12:27:50.222Z,100933.44
2023-04-27T12:30:20.390Z,100935.91
2023-04-27T12:32:52.744Z,100929.50
2023-04-27T12:35:22.456Z,100930.69
2023-04-27T12:37:52.893Z,100931.84
2023-04-27T12:40:23.370Z,100925.25
2023-04-27T12:42:53.181Z,100925.97
2023-04-27T12:45:22.924Z,100929.28
2023-04-27T12:48:03.501Z,100931.16
2023-04-27T12:50:34.004Z,100932.81
2023-04-27T12:53:03.710Z,100923.63
2023-04-27T12:55:34.450Z,100927.59
2023-04-27T12:58:04.872Z,100922.81
2023-04-27T13:00:34.598Z,100917.91
2023-04-27T13:03:07.909Z,100916.84
2023-04-27T13:05:38.450Z,100911.28
2023-04-27T13:08:08.284Z,100913.50
2023-04-27T13:10:38.018Z,100920.66
2023-04-27T13:13:07.988Z,100916.69
2023-04-27T13:15:38.809Z,100915.56
2023-04-27T13:18:11.657Z,100912.00
2023-04-27T13:20:41.384Z,100915.44
2023-04-27T13:23:11.237Z,100919.13
2023-04-27T13:25:41.496Z,100909.56
2023-04-27T13:28:11.210Z,100913.78
2023-04-27T13:30:40.899Z,100904.09
2023-04-27T13:33:22.750Z,100897.47
2023-04-27T13:35:53.556Z,100894.00
2023-04-27T13:38:23.400Z,100891.66
2023-04-27T13:40:53.139Z,100894.00
2023-04-27T13:43:22.903Z,100887.19
2023-04-27T13:45:52.647Z,100882.63
2023-04-27T13:48:25.275Z,100892.47
2023-04-27T13:50:55.011Z,100883.84
2023-04-27T13:53:25.933Z,100885.63
2023-04-27T13:55:56.053Z,100879.56
2023-04-27T13:58:26.426Z,100878.44
2023-04-27T14:00:56.614Z,100880.22
2023-04-27T14:03:29.780Z,100873.78
2023-04-27T14:05:59.693Z,100880.63
2023-04-27T14:08:29.351Z,100867.06
2023-04-27T14:10:59.013Z,100878.13
2023-04-27T14:13:28.709Z,100876.81
2023-04-27T14:15:58.467Z,100877.28
2023-04-27T14:18:32.793Z,100871.50
2023-04-27T14:21:03.014Z,100876.03
2023-04-27T14:23:33.110Z,100866.28
2023-04-27T14:26:02.800Z,100866.38
2023-04-27T14:28:32.639Z,100860.00
2023-04-27T14:31:02.287Z,100863.59
2023-04-27T14:33:34.735Z,100855.78
2023-04-27T14:36:04.463Z,100853.25
2023-04-27T14:38:34.214Z,100852.69
2023-04-27T14:41:03.983Z,100846.16
2023-04-27T14:43:33.697Z,100839.72
2023-04-27T14:46:12.406Z,100832.59
2023-04-27T14:48:52.677Z,100830.03
2023-04-27T14:51:22.976Z,100830.88
2023-04-27T14:53:52.765Z,100823.75
2023-04-27T14:56:23.343Z,100817.31
2023-04-27T14:58:53.104Z,100816.22
2023-04-27T15:01:22.916Z,100820.41
2023-04-27T15:03:55.529Z,100817.88
2023-04-27T15:06:28.110Z,100822.63
2023-04-27T15:08:57.856Z,100808.06
2023-04-27T15:11:27.586Z,100812.34
2023-04-27T15:13:57.321Z,100806.34
2023-04-27T15:16:27.889Z,100803.88
2023-04-27T15:19:00.168Z,100800.47
2023-04-27T15:21:29.913Z,100806.81
2023-04-27T15:23:59.845Z,100812.91
2023-04-27T15:26:29.848Z,100802.34
2023-04-27T15:29:00.108Z,100804.53
2023-04-27T15:31:29.946Z,100809.09
2023-04-27T15:34:02.411Z,100804.25
2023-04-27T15:36:32.531Z,100796.19
2023-04-27T15:39:02.216Z,100795.81
2023-04-27T15:41:32.319Z,100787.75
2023-04-27T15:44:02.054Z,100801.03
2023-04-27T15:46:31.873Z,100794.88
2023-04-27T15:49:04.508Z,100795.72
2023-04-27T15:51:34.295Z,100797.44
2023-04-27T15:54:03.982Z,100790.47
2023-04-27T15:56:33.702Z,100794.38
2023-04-27T15:59:03.897Z,100788.88
2023-04-27T16:01:33.687Z,100790.38
2023-04-27T16:04:06.402Z,100784.34
2023-04-27T16:06:37.663Z,100793.22
2023-04-27T16:09:10.562Z,100787.91
2023-04-27T16:11:40.528Z,100788.13
2023-04-27T16:14:10.184Z,100782.59
2023-04-27T16:16:39.995Z,100777.94
2023-04-27T16:19:12.928Z,100779.06
2023-04-27T16:21:43.363Z,100772.91
2023-04-27T16:24:13.249Z,100780.88
2023-04-27T16:26:43.015Z,100774.13
2023-04-27T16:29:13.009Z,100769.41
2023-04-27T16:31:44.932Z,100764.72
2023-04-27T16:34:17.395Z,100760.97
2023-04-27T16:36:48.588Z,100755.81
2023-04-27T16:39:19.462Z,100754.00
2023-04-27T16:41:49.611Z,100758.47
2023-04-27T16:44:19.305Z,100757.44
2023-04-27T16:46:50.695Z,100761.63
2023-04-27T16:49:23.005Z,100755.38
2023-04-27T16:51:54.444Z,100759.75
2023-04-27T16:54:24.239Z,100752.22
2023-04-27T16:56:55.088Z,100752.41
2023-04-27T16:59:25.039Z,100751.53
2023-04-27T17:01:54.826Z,100737.84
2023-04-27T17:04:27.428Z,100739.91
2023-04-27T17:06:57.199Z,100736.75
2023-04-27T17:09:26.834Z,100734.97
2023-04-27T17:11:56.466Z,100741.88
2023-04-27T17:14:26.522Z,100732.38
2023-04-27T17:16:56.200Z,100734.25
2023-04-27T17:19:28.660Z,100735.28
2023-04-27T17:21:58.384Z,100724.69
2023-04-27T17:24:28.138Z,100727.06
2023-04-27T17:26:57.798Z,100716.63
2023-04-27T17:29:27.491Z,100713.78
2023-04-27T17:31:57.216Z,100718.75
2023-04-27T17:34:29.570Z,100711.31
2023-04-27T17:36:59.304Z,100718.16
2023-04-27T17:39:28.956Z,100715.72
2023-04-27T17:41:59.087Z,100709.91
2023-04-27T17:44:28.812Z,100703.56
2023-04-27T17:46:58.752Z,100705.72
2023-04-27T17:49:31.597Z,100700.75
2023-04-27T17:52:01.491Z,100698.50
2023-04-27T17:54:31.164Z,100693.28
2023-04-27T17:57:00.824Z,100697.97
2023-04-27T17:59:30.625Z,100699.22
2023-04-27T18:02:00.482Z,100701.72
2023-04-27T18:04:33.040Z,100689.38
2023-04-27T18:07:02.890Z,100691.19
2023-04-27T18:09:33.124Z,100688.53
2023-04-27T18:12:03.201Z,100695.97
2023-04-27T18:14:32.985Z,100695.97
2023-04-27T18:17:02.666Z,100688.94
2023-04-27T18:19:34.963Z,100699.78
2023-04-27T18:22:04.677Z,100693.75
2023-04-27T18:24:34.387Z,100690.34
2023-04-27T18:27:04.194Z,100688.00
2023-04-27T18:29:35.028Z,100684.84
2023-04-27T18:32:05.786Z,100694.47
2023-04-27T18:34:38.412Z,100686.75
2023-04-27T18:37:08.116Z,100694.16
2023-04-27T18:39:37.894Z,100688.56
2023-04-27T18:42:07.644Z,100691.31
2023-04-27T18:44:37.411Z,100689.88
2023-04-27T18:47:07.911Z,100702.53
2023-04-27T18:49:40.380Z,100693.94
2023-04-27T18:52:11.689Z,100693.91
2023-04-27T18:54:42.244Z,100689.69
2023-04-27T18:57:12.043Z,100683.63
2023-04-27T18:59:41.987Z,100687.56
2023-04-27T19:02:11.752Z,100684.28
2023-04-27T19:04:52.833Z,100680.09
2023-04-27T19:07:31.976Z,100683.72
2023-04-27T19:10:01.858Z,100679.59
2023-04-27T19:12:31.717Z,100673.59
2023-04-27T19:15:01.458Z,100687.81
2023-04-27T19:17:31.497Z,100684.34
2023-04-27T19:20:03.925Z,100682.69
2023-04-27T19:22:35.051Z,100687.13
2023-04-27T19:25:04.791Z,100685.41
2023-04-27T19:27:34.643Z,100686.56
2023-04-27T19:30:04.512Z,100678.78
2023-04-27T19:32:36.460Z,100687.75
2023-04-27T19:35:12.513Z,100693.13
2023-04-27T19:37:42.332Z,100695.84
2023-04-27T19:40:13.694Z,100696.03
2023-04-27T19:42:43.717Z,100696.97
2023-04-27T19:45:13.759Z,100691.69
2023-04-27T19:47:43.458Z,100687.50
2023-04-27T19:50:16.228Z,100691.25
2023-04-27T19:52:46.162Z,100684.34
2023-04-27T19:55:15.902Z,100683.50
2023-04-27T19:57:45.720Z,100678.34
2023-04-27T20:00:16.352Z,100678.47
2023-04-27T20:02:46.275Z,100684.69
2023-04-27T20:05:19.211Z,100681.31
2023-04-27T20:07:50.123Z,100680.47
2023-04-27T20:10:19.944Z,100680.69
2023-04-27T20:12:56.722Z,100675.50
2023-04-27T20:15:27.510Z,100676.38
2023-04-27T20:17:57.435Z,100673.03
2023-04-27T20:20:29.880Z,100671.41
2023-04-27T20:22:59.672Z,100673.19
2023-04-27T20:25:29.687Z,100670.66
2023-04-27T20:27:59.416Z,100667.25
2023-04-27T20:30:29.927Z,100668.28
2023-04-27T20:35:34.114Z,100652.84
2023-04-27T20:38:03.818Z,100660.78
2023-04-27T20:40:33.600Z,100655.66
2023-04-27T20:43:04.444Z,100658.38
2023-04-27T20:45:34.438Z,100658.56
2023-04-27T20:48:04.369Z,100657.00
2023-04-27T20:50:37.202Z,100650.97
2023-04-27T20:53:07.210Z,100650.97
2023-04-27T20:55:37.135Z,100642.34
2023-04-27T20:58:06.794Z,100634.63
2023-04-27T21:00:36.435Z,100633.00
2023-04-27T21:03:07.334Z,100626.97
2023-04-27T21:05:41.131Z,100620.97
2023-04-27T21:08:10.979Z,100618.50
2023-04-27T21:10:41.189Z,100622.09
2023-04-27T21:13:11.027Z,100618.81
2023-04-27T21:15:41.126Z,100616.38
2023-04-27T21:18:18.831Z,100612.03
2023-04-27T21:20:55.482Z,100603.44
2023-04-27T21:23:25.334Z,100603.66
2023-04-27T21:25:55.037Z,100602.06
2023-04-27T21:28:25.044Z,100588.03
2023-04-27T21:30:54.785Z,100589.88
2023-04-27T21:33:24.481Z,100583.81
2023-04-27T21:35:57.340Z,100578.63
2023-04-27T21:38:27.187Z,100566.47
2023-04-27T21:40:56.854Z,100568.28
2023-04-27T21:43:26.536Z,100560.47
2023-04-27T21:45:56.218Z,100554.44
2023-04-27T21:48:26.233Z,100551.03
2023-04-27T21:50:58.570Z,100551.09
2023-04-27T21:53:28.317Z,100544.16
2023-04-27T21:55:59.352Z,100535.69
2023-04-27T21:58:29.122Z,100540.06
2023-04-27T22:00:58.808Z,100530.50
2023-04-27T22:03:28.763Z,100527.94
2023-04-27T22:06:01.183Z,100528.88
2023-04-27T22:08:31.142Z,100513.13
2023-04-27T22:11:01.489Z,100514.09
2023-04-27T22:13:31.497Z,100515.03
2023-04-27T22:16:01.531Z,100508.91
2023-04-27T22:18:31.693Z,100501.06
2023-04-27T22:21:04.183Z,100499.44
2023-04-27T22:23:34.599Z,100492.63
2023-04-27T22:26:04.570Z,100490.84
2023-04-27T22:28:34.334Z,100497.97
2023-04-27T22:31:04.058Z,100490.19
2023-04-27T22:33:34.106Z,100490.19
2023-04-27T22:36:06.710Z,100480.56
2023-04-27T22:38:36.535Z,100480.63
2023-04-27T22:41:06.196Z,100476.38
2023-04-27T22:43:36.060Z,100472.88
2023-04-27T22:46:05.759Z,100476.53
2023-04-27T22:48:35.464Z,100476.47
2023-04-27T22:51:10.959Z,100470.41
2023-04-27T22:53:40.840Z,100466.16
2023-04-27T22:56:10.940Z,100464.38
2023-04-27T22:58:40.905Z,100465.38
2023-04-27T23:01:10.649Z,100468.00
2023-04-27T23:03:40.403Z,100461.91
2023-04-27T23:06:15.471Z,100468.09
2023-04-27T23:08:47.198Z,100454.09
2023-04-27T23:11:19.007Z,100462.91
2023-04-27T23:13:50.696Z,100455.94
2023-04-27T23:16:20.436Z,100456.00
2023-04-27T23:18:50.937Z,100450.78
2023-04-27T23:21:23.181Z,100451.69
2023-04-27T23:23:52.847Z,100457.03
2023-04-27T23:26:22.541Z,100451.84
2023-04-27T23:28:52.435Z,100446.63
2023-04-27T23:31:22.121Z,100444.97
2023-04-27T23:33:52.315Z,100444.97
2023-04-27T23:36:24.544Z,100441.47
2023-04-27T23:38:54.301Z,100439.72
2023-04-27T23:41:23.989Z,100434.44
2023-04-27T23:43:53.707Z,100431.81
2023-04-27T23:46:23.458Z,100436.22
2023-04-27T23:48:53.171Z,100427.53
2023-04-27T23:51:25.489Z,100428.47
2023-04-27T23:53:55.480Z,100433.88
2023-04-27T23:56:26.196Z,100431.22
2023-04-27T23:58:55.931Z,100432.13
